Airfield :
LOGIN :

Register | Disclaimer

   EN    FR    IT 

 










Legend :    VFR   Marginal VFR   IFR   Intensive IFR   Very Intensive IFR
Visi :
Ceiling :
>= 8 km
>= 3000ft
5 to 8 km
1000 to 3000 ft
1500m to 5 km
500 to 1000 ft
800 to 1500m
200 to 500 ft
< 800m
< 200 ft
Symbols :   Thunderstorms  Fog  Heavy snow  Heavy precipitations  Wind > 20 kt
SIGMETs :     Misc.  Thunderstorms  Icing  Turbulence  Mountain Waves  Volcanic Ashes






- Airport Elevation : 645 ft
- IATA code : DLE


LFGJ - Dole Tavaux

CURRENT METAR :
  • 291200Z AUTO VRB02KT 6000 OVC006 05/04 Q1014 BECMG NSC

EXPIRED METARs :
  • 291130Z AUTO VRB03KT 4200 BR OVC004 04/04 Q1015 BECMG CAVOK
  • 291100Z AUTO VRB02KT 1900 BR OVC002 03/03 Q1015 BECMG CAVOK
  • 291030Z AUTO 00000KT 1000 0800 R05/1300N BCFG VV/// 03/03 Q1016 BECMG CAVOK
  • 291000Z AUTO 15003KT 120V200 0350 R05/0450D FG VV/// 02/02 Q1016 BECMG CAVOK
  • 290930Z AUTO VRB03KT 0300 R05/0375N FG VV/// 02/02 Q1017 BECMG CAVOK
  • 290900Z AUTO VRB02KT 0300 0250 R05/0400N FG VV/// 02/01 Q1017 BECMG 3000 BR BKN003
  • 290830Z AUTO VRB02KT 0250 R05/0325N FG VV/// 01/01 Q1017 BECMG 3000 BR BKN003
  • 290800Z AUTO VRB02KT 0200 R05/0225N FG VV/// 01/01 Q1017 TEMPO 0200 FZFG
  • 290730Z AUTO VRB02KT 0200 R05/0225N FG VV/// 01/01 Q1017 TEMPO 0200 FZFG

TAF TAF LFGJ
Valid from the 29 at 12:00 until the 29 at 21:00 UTC


291100Z 2912/2921 VRB03KT 2000 BR BKN002
BECMG 2912/2914 CAVOK



MET'MAP, your aeronautical weather chart ! - Copyright ORBIFLY December 2007 - Disclaimer

ORBIFLY MET'MAP TEAM :

Programming & Development : Alexandra Zaïnal
Original concept : Baudouin d'Aumeries
Technical & hardware support : Manuel Goepfert
Assistance : Marc-Olivier Méhu




SOURCES & CREDITS :

   NOAA